Airfield :
LOGIN :

Register | Disclaimer

   EN    FR    IT 

 










Legend :    VFR   Marginal VFR   IFR   Intensive IFR   Very Intensive IFR
Visi :
Ceiling :
>= 8 km
>= 3000ft
5 to 8 km
1000 to 3000 ft
1500m to 5 km
500 to 1000 ft
800 to 1500m
200 to 500 ft
< 800m
< 200 ft
Symbols :   Thunderstorms  Fog  Heavy snow  Heavy precipitations  Wind > 20 kt
SIGMETs :     Misc.  Thunderstorms  Icing  Turbulence  Mountain Waves  Volcanic Ashes






- Airport Elevation : 24 ft
- IATA code : SGD


EKSB - Sonderborg

CURRENT METAR :
  • 292320Z AUTO 19004KT 9999 NCD 13/11 Q1005

EXPIRED METARs :
  • 292250Z AUTO 21004KT 9999 NCD 13/11 Q1005
  • 292220Z AUTO 18004KT 9999 SCT090/// 13/11 Q1006
  • 292150Z AUTO 18004KT 140V220 9999 FEW082/// BKN100/// 14/12 Q1006
  • 292120Z AUTO 17004KT 140V200 9999 FEW096/// BKN110/// BKN140/// 13/11 Q1006
  • 292050Z AUTO 18004KT 150V210 9999 SCT100/// BKN140/// 13/11 Q1006
  • 292020Z 18004KT 9999 FEW025 14/11 Q1006
  • 291950Z 19003KT 9999 FEW025 14/11 Q1006
  • 291920Z 20004KT 9999 FEW025 15/11 Q1006
  • 291850Z 20004KT 170V230 9999 FEW025 15/12 Q1005

Expired Forecast.



MET'MAP, your aeronautical weather chart ! - Copyright ORBIFLY December 2007 - Disclaimer

ORBIFLY MET'MAP TEAM :

Programming & Development : Alexandra Zaïnal
Original concept : Baudouin d'Aumeries
Technical & hardware support : Manuel Goepfert
Assistance : Marc-Olivier Méhu




SOURCES & CREDITS :

   NOAA